Time;durP1;ratioP1;P1;durP2;ratioP2;P2;SDS_P1;SDS_P2;PMS_P1;PMS_P2;Temp;Humidity;BMP_temperature;BMP_pressure;BME280_temperature;BME280_humidity;BME280_pressure;Samples;Min_cycle;Max_cycle;Signal;HPM_P1;HPM_P2
2022/03/05 00:00:30;;;;;;;13.97;6.37;;;-3.60;88.20;;;;;;2097706;28;20191;-67
2022/03/05 00:01:31;;;;;;;13.07;6.85;;;-3.60;88.50;;;;;;2097059;28;20666;-68
2022/03/05 00:02:31;;;;;;;11.50;6.57;;;-3.60;88.40;;;;;;2097234;28;20193;-68
2022/03/05 00:03:32;;;;;;;13.17;6.83;;;-3.60;88.60;;;;;;2097096;28;20186;-68
2022/03/05 00:04:33;;;;;;;12.38;6.28;;;-3.60;88.70;;;;;;2097136;28;20203;-67
2022/03/05 00:05:34;;;;;;;12.57;6.13;;;-3.60;88.70;;;;;;2097079;28;20264;-68
2022/03/05 00:06:34;;;;;;;9.83;5.60;;;-3.50;88.70;;;;;;2097915;28;20221;-68
2022/03/05 00:07:35;;;;;;;12.57;6.03;;;-3.50;88.10;;;;;;2097586;28;20176;-68
2022/03/05 00:08:36;;;;;;;11.53;5.93;;;-3.50;88.00;;;;;;2088889;28;20176;-69
2022/03/05 00:09:36;;;;;;;12.00;6.33;;;-3.50;88.00;;;;;;2088763;28;20177;-68
2022/03/05 00:10:38;;;;;;;13.33;7.13;;;-3.50;88.10;;;;;;2097754;28;20180;-68
2022/03/05 00:11:39;;;;;;;15.10;6.80;;;-3.50;88.00;;;;;;2097540;28;20176;-68
2022/03/05 00:12:39;;;;;;;12.13;6.67;;;-3.60;88.30;;;;;;2097754;28;20198;-69
2022/03/05 00:13:40;;;;;;;11.73;6.47;;;-3.60;88.70;;;;;;2097763;28;20582;-69
2022/03/05 00:14:41;;;;;;;13.83;7.13;;;-3.70;89.00;;;;;;2097693;28;20426;-68
2022/03/05 00:15:43;;;;;;;11.83;5.77;;;-3.60;89.20;;;;;;2096788;28;20185;-68
2022/03/05 00:16:43;;;;;;;14.10;6.57;;;-3.60;89.10;;;;;;2097570;28;20181;-68
2022/03/05 00:17:47;;;;;;;12.60;6.70;;;-3.60;89.10;;;;;;2097399;28;20216;-68
2022/03/05 00:18:49;;;;;;;15.25;5.43;;;-3.60;88.90;;;;;;2097640;28;20176;-68
2022/03/05 00:19:49;;;;;;;14.23;7.35;;;-3.60;89.20;;;;;;2096791;28;20187;-68
2022/03/05 00:20:51;;;;;;;11.07;5.73;;;-3.70;89.30;;;;;;2096941;28;20184;-67
2022/03/05 00:21:54;;;;;;;14.38;6.70;;;-3.70;89.40;;;;;;2097386;28;20569;-68
2022/03/05 00:22:55;;;;;;;11.48;6.38;;;-3.70;89.40;;;;;;2097504;28;20219;-68
2022/03/05 00:23:55;;;;;;;14.50;8.07;;;-3.70;89.60;;;;;;2097357;28;20737;-68
2022/03/05 00:24:56;;;;;;;12.17;6.53;;;-3.70;89.70;;;;;;2097466;28;20207;-68
2022/03/05 00:25:58;;;;;;;11.60;5.87;;;-3.60;89.30;;;;;;2096264;28;20180;-68
2022/03/05 00:26:58;;;;;;;13.02;6.95;;;-3.70;89.30;;;;;;2096855;28;20211;-68
2022/03/05 00:27:59;;;;;;;12.20;6.53;;;-3.70;89.80;;;;;;2097289;28;20203;-68
2022/03/05 00:29:00;;;;;;;12.05;5.93;;;-3.70;89.90;;;;;;2096929;28;20717;-68
2022/03/05 00:30:01;;;;;;;14.20;7.13;;;-3.80;90.00;;;;;;2096755;28;20217;-68
2022/03/05 00:31:01;;;;;;;11.33;5.63;;;-3.80;90.00;;;;;;2097636;28;20203;-68
2022/03/05 00:32:03;;;;;;;13.10;6.17;;;-3.90;90.00;;;;;;2097450;28;20183;-67
2022/03/05 00:33:04;;;;;;;12.50;6.53;;;-3.90;90.30;;;;;;2096797;28;20285;-68
2022/03/05 00:34:05;;;;;;;11.50;5.55;;;-3.90;90.70;;;;;;2088709;28;20180;-68
2022/03/05 00:35:07;;;;;;;12.10;5.67;;;-3.80;90.50;;;;;;2096895;28;20175;-67
2022/03/05 00:36:07;;;;;;;12.90;5.97;;;-3.90;90.40;;;;;;2097020;28;20176;-68
2022/03/05 00:37:10;;;;;;;11.93;5.87;;;-3.90;90.70;;;;;;2097662;28;20172;-68
2022/03/05 00:38:11;;;;;;;13.45;5.63;;;-3.90;90.50;;;;;;2097408;28;20199;-68
2022/03/05 00:39:12;;;;;;;12.52;6.45;;;-3.90;90.40;;;;;;2097541;28;20654;-68
2022/03/05 00:40:12;;;;;;;9.30;6.13;;;-3.80;90.20;;;;;;2097476;28;20180;-68
2022/03/05 00:41:13;;;;;;;11.93;6.03;;;-3.90;90.20;;;;;;2096922;28;20740;-68
2022/03/05 00:42:14;;;;;;;12.33;6.53;;;-3.90;90.30;;;;;;2088649;28;20176;-68
2022/03/05 00:43:14;;;;;;;12.37;5.93;;;-3.90;90.40;;;;;;2088563;28;20179;-68
2022/03/05 00:44:15;;;;;;;12.90;6.23;;;-3.90;90.40;;;;;;2096926;28;20180;-68
2022/03/05 00:45:16;;;;;;;13.37;5.90;;;-3.90;90.50;;;;;;2104574;28;20175;-68
2022/03/05 00:46:16;;;;;;;12.27;6.37;;;-3.90;90.80;;;;;;2097397;28;20180;-67
2022/03/05 00:47:17;;;;;;;12.13;5.80;;;-4.00;90.60;;;;;;2096757;28;20172;-68
2022/03/05 00:48:18;;;;;;;10.87;5.87;;;-3.90;90.60;;;;;;2094922;28;20207;-68
2022/03/05 00:49:19;;;;;;;15.45;6.82;;;-4.00;90.70;;;;;;2089338;28;20172;-68
2022/03/05 00:50:20;;;;;;;10.93;6.07;;;-4.00;90.80;;;;;;2089210;28;20712;-68
2022/03/05 00:51:21;;;;;;;13.90;5.67;;;-4.00;90.80;;;;;;2089029;28;20262;-68
2022/03/05 00:52:22;;;;;;;11.57;6.83;;;-4.00;90.80;;;;;;2089195;28;20326;-68
2022/03/05 00:53:22;;;;;;;10.48;5.60;;;-4.00;90.90;;;;;;2088951;28;20176;-68
2022/03/05 00:54:23;;;;;;;16.47;7.13;;;-4.10;91.10;;;;;;2088520;28;20185;-68
2022/03/05 00:55:24;;;;;;;11.60;7.43;;;-4.10;91.40;;;;;;2087745;28;20185;-68
2022/03/05 00:56:24;;;;;;;15.53;7.73;;;-4.10;91.70;;;;;;2088437;28;20189;-68
2022/03/05 00:57:25;;;;;;;13.40;6.70;;;-4.20;92.20;;;;;;2080084;28;20185;-68
2022/03/05 00:58:26;;;;;;;15.03;7.33;;;-4.10;92.30;;;;;;2080468;28;20283;-68
2022/03/05 00:59:27;;;;;;;16.70;7.50;;;-4.10;92.40;;;;;;2088241;28;20259;-68
2022/03/05 01:00:27;;;;;;;13.47;7.23;;;-4.10;92.30;;;;;;2089063;28;20177;-68
2022/03/05 01:01:28;;;;;;;13.87;6.97;;;-4.00;92.40;;;;;;2089110;28;20689;-68
2022/03/05 01:02:30;;;;;;;11.23;6.80;;;-4.00;92.20;;;;;;2089086;28;20658;-68
2022/03/05 01:03:31;;;;;;;14.80;6.75;;;-4.00;92.20;;;;;;2088521;28;20203;-68
2022/03/05 01:04:32;;;;;;;14.33;7.10;;;-4.00;92.30;;;;;;2080336;28;20585;-67
2022/03/05 01:05:33;;;;;;;19.17;8.03;;;-4.00;92.50;;;;;;2079711;28;20177;-67
2022/03/05 01:06:34;;;;;;;18.73;8.48;;;-4.00;92.40;;;;;;2080240;28;20213;-67
2022/03/05 01:07:34;;;;;;;14.32;7.90;;;-4.00;92.30;;;;;;2081066;28;20180;-67
2022/03/05 01:08:35;;;;;;;14.43;7.93;;;-4.00;92.20;;;;;;2082316;28;20193;-67
2022/03/05 01:09:36;;;;;;;15.70;7.57;;;-4.00;92.80;;;;;;2082003;28;20528;-67
2022/03/05 01:10:36;;;;;;;16.17;7.83;;;-4.00;92.40;;;;;;2090049;28;20557;-67
2022/03/05 01:11:37;;;;;;;16.33;7.20;;;-4.00;92.40;;;;;;2090542;28;20184;-67
2022/03/05 01:12:38;;;;;;;14.37;7.90;;;-4.00;92.50;;;;;;2090641;28;20180;-67
2022/03/05 01:13:39;;;;;;;16.58;8.05;;;-3.90;92.30;;;;;;2089837;28;20204;-67
2022/03/05 01:14:39;;;;;;;13.53;7.07;;;-4.00;92.10;;;;;;2081693;28;20185;-67
2022/03/05 01:15:40;;;;;;;16.00;8.13;;;-3.90;92.00;;;;;;2080950;28;20173;-67
2022/03/05 01:16:41;;;;;;;15.63;7.67;;;-4.00;92.10;;;;;;2081762;28;20206;-67
2022/03/05 01:17:42;;;;;;;13.60;8.20;;;-3.90;92.10;;;;;;2081616;28;20204;-67
2022/03/05 01:18:42;;;;;;;15.60;8.90;;;-3.90;91.90;;;;;;2090017;28;20625;-67
2022/03/05 01:19:43;;;;;;;16.30;7.83;;;-4.00;91.90;;;;;;2089836;28;20199;-67
2022/03/05 01:20:44;;;;;;;14.53;7.80;;;-4.00;92.10;;;;;;2089798;28;20435;-68
2022/03/05 01:21:44;;;;;;;15.97;7.87;;;-4.00;92.70;;;;;;2090527;28;20176;-68
2022/03/05 01:22:45;;;;;;;11.23;6.83;;;-4.00;92.10;;;;;;2090423;28;20180;-68
2022/03/05 01:23:46;;;;;;;16.57;7.83;;;-4.10;91.90;;;;;;2090551;28;20177;-67
2022/03/05 01:24:46;;;;;;;14.60;8.73;;;-4.10;91.90;;;;;;2089691;28;20191;-67
2022/03/05 01:25:47;;;;;;;13.43;6.63;;;-4.10;91.70;;;;;;2089268;28;20697;-68
2022/03/05 01:26:48;;;;;;;12.07;6.57;;;-4.00;91.50;;;;;;2090350;28;20754;-67
2022/03/05 01:27:49;;;;;;;13.63;6.53;;;-4.00;91.30;;;;;;2090430;28;20514;-67
2022/03/05 01:28:49;;;;;;;13.83;6.97;;;-4.10;91.30;;;;;;2089709;28;20187;-67
2022/03/05 01:29:50;;;;;;;15.57;6.33;;;-4.10;91.50;;;;;;2089843;28;20184;-67
2022/03/05 01:30:51;;;;;;;12.32;5.90;;;-4.20;91.60;;;;;;2090377;28;20173;-67
2022/03/05 01:31:52;;;;;;;13.77;6.60;;;-4.20;91.80;;;;;;2090439;28;20229;-67
2022/03/05 01:32:53;;;;;;;15.10;6.80;;;-4.20;91.90;;;;;;2090326;28;20794;-68
2022/03/05 01:33:53;;;;;;;10.07;5.63;;;-4.20;92.30;;;;;;2089816;28;20179;-67
2022/03/05 01:34:54;;;;;;;12.10;7.17;;;-4.20;91.80;;;;;;2081421;28;20177;-68
2022/03/05 01:35:55;;;;;;;13.80;7.03;;;-4.20;91.90;;;;;;2089221;28;20172;-67
2022/03/05 01:36:55;;;;;;;15.53;7.13;;;-4.20;91.90;;;;;;2090242;28;20227;-67
2022/03/05 01:37:56;;;;;;;12.83;6.93;;;-4.20;92.20;;;;;;2090384;28;20227;-67
2022/03/05 01:38:57;;;;;;;11.20;6.03;;;-4.20;92.10;;;;;;2089719;28;20656;-67
2022/03/05 01:39:57;;;;;;;11.47;5.83;;;-4.20;92.20;;;;;;2073287;28;20190;-68
2022/03/05 01:40:58;;;;;;;14.93;6.17;;;-4.20;92.20;;;;;;2081440;28;20192;-67
2022/03/05 01:42:01;;;;;;;13.00;6.83;;;-4.20;92.50;;;;;;2090318;28;20173;-68
2022/03/05 01:43:01;;;;;;;9.70;5.55;;;-4.30;92.40;;;;;;2090252;28;20261;-68
2022/03/05 01:44:02;;;;;;;10.57;5.77;;;-4.30;92.40;;;;;;2089700;28;21029;-68
2022/03/05 01:45:04;;;;;;;11.48;6.43;;;-4.30;92.50;;;;;;2089454;28;20584;-68
2022/03/05 01:46:05;;;;;;;12.60;6.38;;;-4.30;92.60;;;;;;2089151;28;20271;-68
2022/03/05 01:47:06;;;;;;;13.87;6.63;;;-4.30;92.70;;;;;;2089584;28;20200;-68
2022/03/05 01:48:07;;;;;;;12.40;5.53;;;-4.40;92.50;;;;;;2089523;28;20227;-68
2022/03/05 01:49:10;;;;;;;10.90;5.95;;;-4.40;92.60;;;;;;2089498;28;20865;-68
2022/03/05 01:50:12;;;;;;;10.52;5.60;;;-4.40;92.80;;;;;;2089573;28;20215;-68
2022/03/05 01:51:13;;;;;;;9.88;5.53;;;-4.40;92.90;;;;;;2089738;28;20169;-67
2022/03/05 01:52:13;;;;;;;12.03;6.80;;;-4.40;93.10;;;;;;2090258;28;20181;-67
2022/03/05 01:53:15;;;;;;;12.93;6.00;;;-4.30;93.20;;;;;;2089465;28;20168;-67
2022/03/05 01:54:16;;;;;;;9.10;5.47;;;-4.30;92.90;;;;;;2081451;28;20223;-67
2022/03/05 01:55:17;;;;;;;10.50;5.68;;;-4.30;92.70;;;;;;2096715;28;20705;-67
2022/03/05 01:56:19;;;;;;;13.70;6.30;;;-4.30;92.50;;;;;;2097945;28;20218;-67
2022/03/05 01:57:20;;;;;;;13.32;5.95;;;-4.30;92.50;;;;;;2089659;28;20584;-67
2022/03/05 01:58:20;;;;;;;12.77;6.20;;;-4.40;92.60;;;;;;2097686;28;20187;-67
2022/03/05 01:59:21;;;;;;;12.67;5.80;;;-4.40;92.80;;;;;;2098476;28;20654;-67
2022/03/05 02:00:22;;;;;;;14.20;6.97;;;-4.50;92.80;;;;;;2098556;28;20206;-67
2022/03/05 02:01:25;;;;;;;11.03;6.37;;;-4.50;93.10;;;;;;2097838;28;20538;-68
2022/03/05 02:02:26;;;;;;;11.07;5.97;;;-4.50;93.20;;;;;;2089886;28;20199;-68
2022/03/05 02:03:28;;;;;;;10.27;6.13;;;-4.40;93.10;;;;;;2089492;28;20191;-68
2022/03/05 02:04:28;;;;;;;9.60;5.53;;;-4.50;93.00;;;;;;2097771;28;20186;-68
2022/03/05 02:05:29;;;;;;;10.07;5.50;;;-4.50;93.20;;;;;;2097276;28;20180;-68
2022/03/05 02:06:30;;;;;;;13.63;6.70;;;-4.50;93.20;;;;;;2089320;28;20183;-68
2022/03/05 02:07:32;;;;;;;12.27;6.33;;;-4.50;93.40;;;;;;2089518;28;20180;-68
2022/03/05 02:08:32;;;;;;;10.52;6.22;;;-4.50;93.70;;;;;;2089464;28;20172;-68
2022/03/05 02:09:33;;;;;;;11.73;6.23;;;-4.50;93.60;;;;;;2089471;28;20180;-68
2022/03/05 02:10:34;;;;;;;12.30;5.60;;;-4.60;93.60;;;;;;2089429;28;20176;-68
2022/03/05 02:11:35;;;;;;;11.40;6.27;;;-4.60;93.70;;;;;;2097833;28;20242;-68
2022/03/05 02:12:37;;;;;;;11.57;5.47;;;-4.60;93.80;;;;;;2105932;28;20599;-68
2022/03/05 02:13:38;;;;;;;10.15;5.53;;;-4.60;93.70;;;;;;2097770;28;20187;-68
2022/03/05 02:14:38;;;;;;;10.10;5.80;;;-4.70;93.70;;;;;;2089379;28;20188;-68
2022/03/05 02:15:39;;;;;;;14.13;5.70;;;-4.70;93.80;;;;;;2097165;28;20211;-68
2022/03/05 02:16:40;;;;;;;10.47;5.67;;;-4.70;94.00;;;;;;2098262;28;20603;-68
2022/03/05 02:17:41;;;;;;;13.13;6.03;;;-4.70;94.00;;;;;;2097672;28;20175;-68
2022/03/05 02:18:46;;;;;;;10.43;6.23;;;-4.70;94.20;;;;;;2097439;28;20194;-68
2022/03/05 02:19:47;;;;;;;11.23;5.93;;;-4.70;94.10;;;;;;2097240;28;20195;-68
2022/03/05 02:20:50;;;;;;;10.00;5.20;;;-4.70;94.10;;;;;;2089411;28;20192;-68
2022/03/05 02:21:50;;;;;;;11.90;6.28;;;-4.70;94.80;;;;;;2089575;28;20665;-68
2022/03/05 02:22:51;;;;;;;7.77;4.53;;;-4.70;94.40;;;;;;2089285;28;20188;-68
2022/03/05 02:23:53;;;;;;;11.60;6.10;;;-4.70;94.60;;;;;;2097591;28;20605;-68
2022/03/05 02:24:58;;;;;;;11.60;6.18;;;-4.70;94.70;;;;;;2097515;28;20729;-68
2022/03/05 02:26:02;;;;;;;15.40;7.07;;;-4.70;94.60;;;;;;2081035;28;20189;-68
2022/03/05 02:27:05;;;;;;;10.95;5.65;;;-4.70;95.00;;;;;;2082324;28;20219;-68
2022/03/05 02:28:06;;;;;;;12.32;5.88;;;-4.70;94.80;;;;;;2097625;28;20233;-68
2022/03/05 02:29:06;;;;;;;11.40;6.50;;;-4.70;94.70;;;;;;2097478;28;20180;-68
2022/03/05 02:30:08;;;;;;;14.40;6.73;;;-4.70;94.50;;;;;;2089387;28;20187;-68
2022/03/05 02:31:09;;;;;;;11.20;5.93;;;-4.70;94.70;;;;;;2097620;28;20176;-68
2022/03/05 02:32:11;;;;;;;10.53;5.50;;;-4.80;95.10;;;;;;2097577;28;20249;-68
2022/03/05 02:33:11;;;;;;;11.32;5.72;;;-4.70;95.20;;;;;;2089316;28;20204;-68
2022/03/05 02:34:12;;;;;;;11.50;6.47;;;-4.70;94.80;;;;;;2089308;28;20549;-68
2022/03/05 02:35:13;;;;;;;11.20;5.90;;;-4.70;94.80;;;;;;2096857;28;20176;-68
2022/03/05 02:36:14;;;;;;;9.80;5.60;;;-4.70;94.80;;;;;;2098176;28;20218;-68
2022/03/05 02:37:16;;;;;;;11.97;5.40;;;-4.80;94.80;;;;;;2098072;28;20180;-68
2022/03/05 02:38:20;;;;;;;10.75;5.60;;;-4.80;95.10;;;;;;2097511;28;20607;-68
2022/03/05 02:39:24;;;;;;;12.00;6.18;;;-4.80;95.30;;;;;;2097516;28;20238;-68
2022/03/05 02:40:24;;;;;;;14.60;6.63;;;-4.80;95.40;;;;;;2097514;28;20211;-68
2022/03/05 02:41:25;;;;;;;11.87;6.10;;;-4.70;95.60;;;;;;2097471;28;20184;-68
2022/03/05 02:42:26;;;;;;;13.10;5.83;;;-4.80;95.40;;;;;;2098208;28;20559;-68
2022/03/05 02:43:26;;;;;;;13.73;5.93;;;-4.80;95.40;;;;;;2098084;28;20252;-68
2022/03/05 02:44:27;;;;;;;10.93;5.80;;;-4.80;95.30;;;;;;2097573;28;20194;-68
2022/03/05 02:45:28;;;;;;;10.27;6.07;;;-4.80;95.40;;;;;;2088552;28;20222;-68
2022/03/05 02:46:29;;;;;;;11.83;6.13;;;-4.80;95.30;;;;;;2089230;28;20179;-68
2022/03/05 02:47:30;;;;;;;12.60;5.82;;;-4.80;95.30;;;;;;2097448;28;20186;-68
2022/03/05 02:48:33;;;;;;;16.63;6.03;;;-4.90;95.40;;;;;;2105719;28;20629;-68
2022/03/05 02:49:34;;;;;;;11.57;4.93;;;-4.90;95.50;;;;;;2092684;28;20197;-68
2022/03/05 02:50:35;;;;;;;9.83;5.43;;;-4.80;95.60;;;;;;2081193;28;20227;-68
2022/03/05 02:51:35;;;;;;;12.35;7.07;;;-4.80;95.60;;;;;;2089103;28;20219;-68
2022/03/05 02:52:40;;;;;;;10.80;6.30;;;-4.80;95.40;;;;;;2097480;28;20188;-68
2022/03/05 02:53:40;;;;;;;11.90;6.55;;;-4.90;95.60;;;;;;2089675;28;20180;-68
2022/03/05 02:54:41;;;;;;;11.67;6.07;;;-4.90;95.60;;;;;;2097366;28;20199;-68
2022/03/05 02:55:43;;;;;;;12.57;5.87;;;-4.90;95.60;;;;;;2088401;28;20177;-68
2022/03/05 02:56:43;;;;;;;13.93;6.50;;;-4.90;95.80;;;;;;2089279;28;20267;-68
2022/03/05 02:57:44;;;;;;;12.90;6.47;;;-4.90;96.20;;;;;;2088959;28;20191;-68
2022/03/05 02:58:45;;;;;;;8.80;5.47;;;-4.90;95.90;;;;;;2089078;28;20180;-68
2022/03/05 02:59:46;;;;;;;9.30;5.27;;;-4.90;95.90;;;;;;2097347;28;20494;-68
2022/03/05 03:00:46;;;;;;;13.13;5.43;;;-4.90;95.80;;;;;;2089605;28;20184;-68
2022/03/05 03:01:47;;;;;;;15.63;6.33;;;-5.00;96.10;;;;;;2089801;28;20185;-68
2022/03/05 03:02:49;;;;;;;11.03;5.20;;;-4.90;95.90;;;;;;2089624;28;20186;-68
2022/03/05 03:03:50;;;;;;;13.05;6.32;;;-4.90;96.20;;;;;;2089168;28;20187;-68
2022/03/05 03:04:51;;;;;;;10.63;5.60;;;-4.90;96.20;;;;;;2088898;28;20196;-68
2022/03/05 03:05:52;;;;;;;11.07;5.23;;;-5.00;96.30;;;;;;2089172;28;20180;-68
2022/03/05 03:06:52;;;;;;;9.33;5.40;;;-5.00;96.10;;;;;;2089028;28;20204;-68
2022/03/05 03:07:53;;;;;;;10.13;5.30;;;-4.90;96.30;;;;;;2080863;28;20252;-68
2022/03/05 03:08:53;;;;;;;10.97;6.13;;;-5.00;96.30;;;;;;2088967;28;20659;-68
2022/03/05 03:09:54;;;;;;;8.23;5.70;;;-5.00;96.20;;;;;;2089721;28;20222;-68
2022/03/05 03:10:55;;;;;;;11.33;5.37;;;-5.00;96.30;;;;;;2089530;28;20184;-68
2022/03/05 03:11:55;;;;;;;9.90;5.20;;;-4.90;96.40;;;;;;2089624;28;20651;-68
2022/03/05 03:12:58;;;;;;;11.30;5.43;;;-4.90;96.10;;;;;;2089618;28;20910;-68
2022/03/05 03:13:58;;;;;;;13.57;5.38;;;-5.00;96.10;;;;;;2089684;28;20225;-68
2022/03/05 03:14:59;;;;;;;12.63;5.20;;;-5.00;96.40;;;;;;2088885;28;20297;-68
2022/03/05 03:16:00;;;;;;;10.87;5.40;;;-5.00;96.20;;;;;;2071971;28;20734;-68
2022/03/05 03:17:01;;;;;;;12.23;5.90;;;-5.00;96.10;;;;;;2072444;28;20858;-68
2022/03/05 03:18:01;;;;;;;13.60;6.17;;;-5.00;96.30;;;;;;2088998;28;20203;-68
2022/03/05 03:19:02;;;;;;;13.13;4.63;;;-5.00;96.20;;;;;;2088875;28;20207;-68
2022/03/05 03:20:03;;;;;;;8.33;4.57;;;-5.10;96.00;;;;;;2079376;28;20207;-68
2022/03/05 03:21:04;;;;;;;11.18;5.28;;;-5.10;96.10;;;;;;2080589;28;20185;-68
2022/03/05 03:22:04;;;;;;;8.47;4.20;;;-5.00;95.80;;;;;;2088961;28;20738;-68
2022/03/05 03:23:05;;;;;;;10.70;5.53;;;-5.00;95.90;;;;;;2089464;28;20176;-68
2022/03/05 03:24:06;;;;;;;8.50;4.77;;;-5.00;95.80;;;;;;2089643;28;20184;-68
2022/03/05 03:25:08;;;;;;;10.80;4.60;;;-5.00;95.80;;;;;;2088682;28;20183;-68
2022/03/05 03:26:08;;;;;;;10.13;5.15;;;-5.00;96.10;;;;;;2088650;28;20725;-68
2022/03/05 03:27:09;;;;;;;8.70;5.03;;;-5.00;95.80;;;;;;2089348;28;20212;-68
2022/03/05 03:28:10;;;;;;;9.57;4.73;;;-5.00;96.00;;;;;;2088871;28;20200;-68
2022/03/05 03:29:11;;;;;;;10.37;5.70;;;-5.00;96.00;;;;;;2080575;28;20196;-68
2022/03/05 03:30:14;;;;;;;8.13;4.87;;;-5.00;95.90;;;;;;2088942;28;20186;-68
2022/03/05 03:31:14;;;;;;;9.65;5.78;;;-5.00;95.60;;;;;;2087823;28;20465;-68
2022/03/05 03:32:15;;;;;;;10.17;5.80;;;-5.00;95.60;;;;;;2080746;28;20675;-68
2022/03/05 03:33:16;;;;;;;10.53;5.23;;;-5.00;95.70;;;;;;2088726;28;20745;-68
2022/03/05 03:34:16;;;;;;;12.60;6.23;;;-5.10;95.70;;;;;;2088837;28;20216;-68
2022/03/05 03:35:17;;;;;;;10.93;6.27;;;-5.10;95.70;;;;;;2088134;28;20255;-68
2022/03/05 03:36:18;;;;;;;11.43;6.00;;;-5.10;95.70;;;;;;2088891;28;20820;-68
2022/03/05 03:37:19;;;;;;;13.30;6.07;;;-5.10;95.90;;;;;;2080197;28;20189;-68
2022/03/05 03:38:20;;;;;;;12.20;5.83;;;-5.00;95.70;;;;;;2088774;28;20745;-68
2022/03/05 03:39:20;;;;;;;12.83;6.17;;;-5.00;95.90;;;;;;2088778;28;20207;-68
2022/03/05 03:40:21;;;;;;;10.60;5.47;;;-5.00;95.80;;;;;;2080538;28;20735;-68
2022/03/05 03:41:22;;;;;;;10.93;5.57;;;-5.10;95.60;;;;;;2080603;28;20204;-68
2022/03/05 03:42:23;;;;;;;9.20;5.23;;;-5.10;95.90;;;;;;2088708;28;20197;-68
2022/03/05 03:43:24;;;;;;;10.88;5.72;;;-5.10;96.50;;;;;;2088773;28;20184;-68
2022/03/05 03:44:25;;;;;;;12.20;5.37;;;-5.10;96.00;;;;;;2080476;28;20197;-68
2022/03/05 03:45:25;;;;;;;10.20;4.97;;;-5.10;96.40;;;;;;2088184;28;20232;-68
2022/03/05 03:46:26;;;;;;;9.40;5.97;;;-5.10;96.00;;;;;;2089226;28;20180;-68
2022/03/05 03:47:27;;;;;;;14.27;5.87;;;-5.10;96.20;;;;;;2089394;28;20184;-68
2022/03/05 03:48:27;;;;;;;13.00;6.23;;;-5.10;96.10;;;;;;2088491;28;20197;-68
2022/03/05 03:49:28;;;;;;;10.30;5.40;;;-5.10;95.90;;;;;;2088638;28;20191;-68
2022/03/05 03:50:29;;;;;;;10.27;5.50;;;-5.10;95.90;;;;;;2089335;28;20194;-68
2022/03/05 03:51:29;;;;;;;11.00;5.87;;;-5.10;95.70;;;;;;2089357;28;20188;-68
2022/03/05 03:52:30;;;;;;;11.70;5.70;;;-5.20;95.80;;;;;;2088586;28;20180;-68
2022/03/05 03:53:31;;;;;;;10.30;6.10;;;-5.20;95.70;;;;;;2088762;28;20325;-68
2022/03/05 03:54:32;;;;;;;12.83;6.13;;;-5.20;95.70;;;;;;2096776;28;20176;-68
2022/03/05 03:55:32;;;;;;;9.93;5.63;;;-5.20;95.80;;;;;;2096310;28;20183;-68
2022/03/05 03:56:33;;;;;;;10.97;5.47;;;-5.20;96.20;;;;;;2089237;28;20258;-68
2022/03/05 03:57:34;;;;;;;15.27;6.90;;;-5.20;96.10;;;;;;2089285;28;20581;-68
2022/03/05 03:58:34;;;;;;;11.47;5.67;;;-5.20;96.10;;;;;;2088562;28;20185;-68
2022/03/05 03:59:35;;;;;;;11.07;6.30;;;-5.30;96.30;;;;;;2088545;28;20251;-68
2022/03/05 04:00:36;;;;;;;11.40;5.97;;;-5.20;96.70;;;;;;2092989;28;20180;-68
2022/03/05 04:01:36;;;;;;;11.83;6.23;;;-5.20;96.60;;;;;;2097505;28;20183;-67
2022/03/05 04:02:38;;;;;;;14.33;5.60;;;-5.30;96.40;;;;;;2097476;28;20190;-68
2022/03/05 04:03:38;;;;;;;10.82;5.07;;;-5.20;96.50;;;;;;2097600;28;20187;-68
2022/03/05 04:04:39;;;;;;;10.67;5.37;;;-5.30;96.20;;;;;;2088418;28;20207;-68
2022/03/05 04:05:40;;;;;;;11.13;4.73;;;-5.20;96.40;;;;;;2087998;28;20192;-68
2022/03/05 04:09:18;;;;;;;9.15;4.63;;;-5.20;95.90;;;;;;2097478;28;20195;-68
2022/03/05 04:10:19;;;;;;;8.73;4.37;;;-5.20;95.50;;;;;;2097430;28;20183;-68
2022/03/05 04:11:20;;;;;;;9.00;4.93;;;-5.20;95.20;;;;;;2097463;28;20197;-68
2022/03/05 04:12:21;;;;;;;8.40;4.40;;;-5.20;95.40;;;;;;2105243;28;20641;-68
2022/03/05 04:13:22;;;;;;;7.38;4.15;;;-5.20;95.00;;;;;;2096706;28;20172;-68
2022/03/05 04:14:23;;;;;;;8.35;3.78;;;-5.20;94.90;;;;;;2096970;28;20191;-69
2022/03/05 04:15:24;;;;;;;6.73;3.53;;;-5.20;95.00;;;;;;2104540;28;20220;-68
2022/03/05 04:16:24;;;;;;;6.43;3.77;;;-5.30;94.90;;;;;;2097531;28;20559;-68
2022/03/05 04:17:25;;;;;;;6.57;3.63;;;-5.30;94.90;;;;;;2097488;28;20722;-68
2022/03/05 04:18:26;;;;;;;7.57;4.03;;;-5.30;94.90;;;;;;2097649;28;20696;-68
2022/03/05 04:19:27;;;;;;;6.83;4.10;;;-5.30;95.10;;;;;;2096752;28;20993;-68
2022/03/05 04:20:28;;;;;;;7.07;3.47;;;-5.20;94.80;;;;;;2088731;28;20211;-68
2022/03/05 04:21:28;;;;;;;6.93;3.87;;;-5.30;94.60;;;;;;2088602;28;20190;-68
2022/03/05 04:22:30;;;;;;;7.10;3.87;;;-5.30;94.50;;;;;;2097022;28;20174;-68
2022/03/05 04:23:30;;;;;;;9.43;4.40;;;-5.30;94.50;;;;;;2097411;28;20195;-73
2022/03/05 04:24:31;;;;;;;6.17;4.10;;;-5.30;94.40;;;;;;2096859;28;20188;-67
2022/03/05 04:25:32;;;;;;;7.03;3.30;;;-5.40;94.50;;;;;;2096124;28;20214;-68
2022/03/05 04:26:32;;;;;;;9.60;4.30;;;-5.40;94.70;;;;;;2097347;28;21028;-68
2022/03/05 04:27:33;;;;;;;7.47;3.90;;;-5.40;94.70;;;;;;2096660;28;20183;-67
2022/03/05 04:28:34;;;;;;;6.63;3.22;;;-5.40;95.00;;;;;;2097283;28;20313;-67
2022/03/05 04:29:35;;;;;;;5.60;4.33;;;-5.40;95.20;;;;;;2105080;28;20962;-68
2022/03/05 04:30:35;;;;;;;7.97;4.17;;;-5.40;95.40;;;;;;2096958;28;20198;-68
2022/03/05 04:31:36;;;;;;;9.07;4.77;;;-5.40;95.50;;;;;;2088519;28;20222;-67
2022/03/05 04:32:38;;;;;;;11.57;3.30;;;-5.40;95.70;;;;;;2088410;28;20738;-68
2022/03/05 04:33:39;;;;;;;7.95;3.58;;;-5.40;95.20;;;;;;2096581;28;20669;-68
2022/03/05 04:34:40;;;;;;;8.30;3.63;;;-5.40;95.30;;;;;;2097365;28;20205;-68
2022/03/05 04:35:41;;;;;;;5.17;3.10;;;-5.40;95.10;;;;;;2096604;28;20178;-68
2022/03/05 04:36:41;;;;;;;6.37;3.90;;;-5.40;95.30;;;;;;2088388;28;20421;-68
2022/03/05 04:37:42;;;;;;;6.47;3.63;;;-5.40;95.50;;;;;;2079948;28;20234;-68
2022/03/05 04:38:43;;;;;;;6.80;4.30;;;-5.50;95.70;;;;;;2096662;28;20199;-68
2022/03/05 04:39:43;;;;;;;7.27;3.73;;;-5.40;95.70;;;;;;2097203;28;20642;-68
2022/03/05 04:40:44;;;;;;;13.03;4.33;;;-5.40;95.60;;;;;;2097313;28;20528;-68
2022/03/05 04:41:45;;;;;;;8.10;4.23;;;-5.40;95.50;;;;;;2097338;28;20198;-68
2022/03/05 04:42:45;;;;;;;12.90;5.17;;;-5.40;95.70;;;;;;2096224;28;20178;-68
2022/03/05 04:43:47;;;;;;;9.73;4.63;;;-5.40;95.80;;;;;;2088486;28;20178;-67
2022/03/05 04:44:48;;;;;;;8.05;4.30;;;-5.40;95.60;;;;;;2096612;28;20182;-67
2022/03/05 04:45:49;;;;;;;9.30;4.43;;;-5.40;95.70;;;;;;2096720;28;20195;-67
2022/03/05 04:46:49;;;;;;;6.97;3.67;;;-5.50;95.60;;;;;;2097113;28;20205;-67
2022/03/05 04:47:50;;;;;;;6.63;4.20;;;-5.50;95.70;;;;;;2097154;28;20192;-67
2022/03/05 04:48:52;;;;;;;8.53;4.27;;;-5.50;95.90;;;;;;2097235;28;20212;-67
2022/03/05 04:49:52;;;;;;;7.63;3.75;;;-5.50;95.90;;;;;;2097208;28;20650;-68
2022/03/05 04:50:53;;;;;;;8.60;4.80;;;-5.60;95.80;;;;;;2095846;28;20178;-68
2022/03/05 04:51:53;;;;;;;6.93;4.07;;;-5.60;96.00;;;;;;2091066;28;20218;-67
2022/03/05 04:52:54;;;;;;;7.63;4.07;;;-5.60;96.20;;;;;;2088802;28;20183;-67
2022/03/05 04:53:55;;;;;;;8.10;4.40;;;-5.60;96.30;;;;;;2088980;28;20183;-68
2022/03/05 04:54:56;;;;;;;9.50;4.53;;;-5.60;96.20;;;;;;2088857;28;20270;-67
2022/03/05 04:55:56;;;;;;;10.50;4.80;;;-5.60;96.40;;;;;;2088350;28;20184;-68
2022/03/05 04:56:57;;;;;;;9.40;4.50;;;-5.60;96.40;;;;;;2088880;28;20191;-67
2022/03/05 04:57:58;;;;;;;12.67;5.57;;;-5.70;96.70;;;;;;2088927;28;20202;-68
2022/03/05 04:58:58;;;;;;;11.57;6.60;;;-5.70;97.20;;;;;;2088166;28;20195;-68
2022/03/05 04:59:59;;;;;;;9.67;4.93;;;-5.70;97.40;;;;;;2088333;28;20223;-67
2022/03/05 05:01:01;;;;;;;10.68;5.97;;;-5.60;97.50;;;;;;2088215;28;20226;-67
2022/03/05 05:02:02;;;;;;;8.70;4.53;;;-5.60;97.20;;;;;;2088271;28;20215;-67
2022/03/05 05:03:03;;;;;;;9.68;4.75;;;-5.60;97.40;;;;;;2088897;28;20221;-67
2022/03/05 05:04:04;;;;;;;9.07;4.77;;;-5.60;97.40;;;;;;2088853;28;20191;-68
2022/03/05 05:05:05;;;;;;;10.40;4.57;;;-5.60;97.20;;;;;;2087917;28;20215;-67
2022/03/05 05:06:06;;;;;;;10.43;4.82;;;-5.60;97.00;;;;;;2087864;28;20787;-67
2022/03/05 05:07:07;;;;;;;11.13;5.13;;;-5.60;97.10;;;;;;2088077;28;20216;-68
2022/03/05 05:08:08;;;;;;;9.73;5.23;;;-5.60;97.30;;;;;;2080099;28;20435;-68
2022/03/05 05:09:09;;;;;;;8.90;4.97;;;-5.60;97.30;;;;;;2088268;28;20202;-67
2022/03/05 05:10:09;;;;;;;10.07;5.30;;;-5.50;97.30;;;;;;2088409;28;20191;-67
2022/03/05 05:11:10;;;;;;;9.83;4.77;;;-5.50;97.00;;;;;;2088267;28;20169;-67
2022/03/05 05:12:11;;;;;;;8.60;4.72;;;-5.50;96.90;;;;;;2088222;28;20182;-67
2022/03/05 05:13:12;;;;;;;7.67;4.80;;;-5.50;96.70;;;;;;2088247;28;20234;-66
2022/03/05 05:14:12;;;;;;;8.37;4.60;;;-5.50;96.40;;;;;;2088886;28;20184;-67
2022/03/05 05:15:13;;;;;;;11.77;5.23;;;-5.60;96.40;;;;;;2087594;28;20179;-67
2022/03/05 05:16:14;;;;;;;11.93;5.73;;;-5.60;96.60;;;;;;2088278;28;20168;-67